sensor_id;sensor_type;location;lat;lon;timestamp;temperature;humidity
36924;DHT22;22841;50.252;18.688;2023-02-01T00:02:03;2.10;99.90
36924;DHT22;22841;50.252;18.688;2023-02-01T00:04:29;2.10;99.90
36924;DHT22;22841;50.252;18.688;2023-02-01T00:06:56;2.10;99.90
36924;DHT22;22841;50.252;18.688;2023-02-01T00:09:22;2.00;99.90
36924;DHT22;22841;50.252;18.688;2023-02-01T00:11:48;2.10;99.90
36924;DHT22;22841;50.252;18.688;2023-02-01T00:14:14;2.00;99.90
36924;DHT22;22841;50.252;18.688;2023-02-01T00:16:40;2.10;99.90
36924;DHT22;22841;50.252;18.688;2023-02-01T00:19:15;2.10;99.90
36924;DHT22;22841;50.252;18.688;2023-02-01T00:21:42;2.10;99.90
36924;DHT22;22841;50.252;18.688;2023-02-01T00:24:09;2.10;99.90
36924;DHT22;22841;50.252;18.688;2023-02-01T00:26:38;2.10;99.90
36924;DHT22;22841;50.252;18.688;2023-02-01T00:29:08;2.10;99.90
36924;DHT22;22841;50.252;18.688;2023-02-01T00:31:35;2.20;99.90
36924;DHT22;22841;50.252;18.688;2023-02-01T00:34:01;2.20;99.90
36924;DHT22;22841;50.252;18.688;2023-02-01T00:36:27;2.20;99.90
36924;DHT22;22841;50.252;18.688;2023-02-01T00:38:54;2.20;99.90
36924;DHT22;22841;50.252;18.688;2023-02-01T00:41:21;2.20;99.90
36924;DHT22;22841;50.252;18.688;2023-02-01T00:43:50;2.20;99.90
36924;DHT22;22841;50.252;18.688;2023-02-01T00:46:17;2.20;99.90
36924;DHT22;22841;50.252;18.688;2023-02-01T00:48:44;2.30;99.90
36924;DHT22;22841;50.252;18.688;2023-02-01T00:51:15;2.40;99.90
36924;DHT22;22841;50.252;18.688;2023-02-01T00:53:42;2.50;99.90
36924;DHT22;22841;50.252;18.688;2023-02-01T00:56:09;2.50;99.90
36924;DHT22;22841;50.252;18.688;2023-02-01T00:58:36;2.50;99.90
36924;DHT22;22841;50.252;18.688;2023-02-01T01:01:35;2.30;99.90
36924;DHT22;22841;50.252;18.688;2023-02-01T01:03:56;2.10;99.90
36924;DHT22;22841;50.252;18.688;2023-02-01T01:06:28;1.90;99.90
36924;DHT22;22841;50.252;18.688;2023-02-01T01:08:56;1.80;99.90
36924;DHT22;22841;50.252;18.688;2023-02-01T01:11:26;1.70;99.90
36924;DHT22;22841;50.252;18.688;2023-02-01T01:13:54;1.60;99.90
36924;DHT22;22841;50.252;18.688;2023-02-01T01:16:22;1.50;99.90
36924;DHT22;22841;50.252;18.688;2023-02-01T01:18:49;1.40;99.90
36924;DHT22;22841;50.252;18.688;2023-02-01T01:21:16;1.20;99.90
36924;DHT22;22841;50.252;18.688;2023-02-01T01:23:43;1.20;99.90
36924;DHT22;22841;50.252;18.688;2023-02-01T01:26:15;1.10;99.90
36924;DHT22;22841;50.252;18.688;2023-02-01T01:28:41;1.10;99.90
36924;DHT22;22841;50.252;18.688;2023-02-01T01:31:12;1.10;99.90
36924;DHT22;22841;50.252;18.688;2023-02-01T01:33:38;1.20;99.90
36924;DHT22;22841;50.252;18.688;2023-02-01T01:36:06;1.10;99.90
36924;DHT22;22841;50.252;18.688;2023-02-01T01:38:32;1.10;99.90
36924;DHT22;22841;50.252;18.688;2023-02-01T01:40:58;1.10;99.90
36924;DHT22;22841;50.252;18.688;2023-02-01T01:43:24;1.00;99.90
36924;DHT22;22841;50.252;18.688;2023-02-01T01:45:50;1.00;99.90
36924;DHT22;22841;50.252;18.688;2023-02-01T01:48:29;1.00;99.90
36924;DHT22;22841;50.252;18.688;2023-02-01T01:51:09;1.00;99.90
36924;DHT22;22841;50.252;18.688;2023-02-01T01:53:42;1.00;99.90
36924;DHT22;22841;50.252;18.688;2023-02-01T01:56:10;1.00;99.90
36924;DHT22;22841;50.252;18.688;2023-02-01T01:58:36;1.00;99.90
36924;DHT22;22841;50.252;18.688;2023-02-01T02:01:03;1.00;99.90
36924;DHT22;22841;50.252;18.688;2023-02-01T02:03:41;1.00;99.90
36924;DHT22;22841;50.252;18.688;2023-02-01T02:06:25;1.00;99.90
36924;DHT22;22841;50.252;18.688;2023-02-01T02:08:54;1.00;99.90
36924;DHT22;22841;50.252;18.688;2023-02-01T02:11:20;1.00;99.90
36924;DHT22;22841;50.252;18.688;2023-02-01T02:13:48;1.00;99.90
36924;DHT22;22841;50.252;18.688;2023-02-01T02:27:19;1.00;99.90
36924;DHT22;22841;50.252;18.688;2023-02-01T02:32:42;1.00;99.90
36924;DHT22;22841;50.252;18.688;2023-02-01T02:35:30;1.00;99.90
36924;DHT22;22841;50.252;18.688;2023-02-01T02:43:44;1.10;99.90
36924;DHT22;22841;50.252;18.688;2023-02-01T02:46:39;1.00;99.90
36924;DHT22;22841;50.252;18.688;2023-02-01T02:49:35;1.10;99.90
36924;DHT22;22841;50.252;18.688;2023-02-01T02:52:12;1.00;99.90
36924;DHT22;22841;50.252;18.688;2023-02-01T02:54:59;1.00;99.90
36924;DHT22;22841;50.252;18.688;2023-02-01T02:57:36;1.10;99.90
36924;DHT22;22841;50.252;18.688;2023-02-01T03:00:25;1.10;99.90
36924;DHT22;22841;50.252;18.688;2023-02-01T03:03:12;1.00;99.90
36924;DHT22;22841;50.252;18.688;2023-02-01T03:05:56;1.10;99.90
36924;DHT22;22841;50.252;18.688;2023-02-01T03:08:24;1.10;99.90
36924;DHT22;22841;50.252;18.688;2023-02-01T03:11:08;1.10;99.90
36924;DHT22;22841;50.252;18.688;2023-02-01T03:16:53;1.10;99.90
36924;DHT22;22841;50.252;18.688;2023-02-01T03:19:34;1.10;99.90
36924;DHT22;22841;50.252;18.688;2023-02-01T03:22:11;1.10;99.90
36924;DHT22;22841;50.252;18.688;2023-02-01T03:27:27;1.10;99.90
36924;DHT22;22841;50.252;18.688;2023-02-01T03:30:00;1.00;99.90
36924;DHT22;22841;50.252;18.688;2023-02-01T03:32:28;1.00;99.90
36924;DHT22;22841;50.252;18.688;2023-02-01T03:34:54;1.00;99.90
36924;DHT22;22841;50.252;18.688;2023-02-01T03:37:24;1.00;99.90
36924;DHT22;22841;50.252;18.688;2023-02-01T03:40:05;1.00;99.90
36924;DHT22;22841;50.252;18.688;2023-02-01T03:42:47;1.10;99.90
36924;DHT22;22841;50.252;18.688;2023-02-01T03:45:22;1.10;99.90
36924;DHT22;22841;50.252;18.688;2023-02-01T03:47:52;1.10;99.90
36924;DHT22;22841;50.252;18.688;2023-02-01T03:50:21;1.10;99.90
36924;DHT22;22841;50.252;18.688;2023-02-01T03:53:01;1.10;99.90
36924;DHT22;22841;50.252;18.688;2023-02-01T03:55:28;1.00;99.90
36924;DHT22;22841;50.252;18.688;2023-02-01T03:58:05;1.00;99.90
36924;DHT22;22841;50.252;18.688;2023-02-01T04:00:32;1.00;99.90
36924;DHT22;22841;50.252;18.688;2023-02-01T04:02:58;1.10;99.90
36924;DHT22;22841;50.252;18.688;2023-02-01T04:05:24;1.00;99.90
36924;DHT22;22841;50.252;18.688;2023-02-01T04:07:50;1.00;99.90
36924;DHT22;22841;50.252;18.688;2023-02-01T04:10:17;1.00;99.90
36924;DHT22;22841;50.252;18.688;2023-02-01T04:12:43;1.00;99.90
36924;DHT22;22841;50.252;18.688;2023-02-01T04:15:09;1.00;99.90
36924;DHT22;22841;50.252;18.688;2023-02-01T04:17:35;1.00;99.90
36924;DHT22;22841;50.252;18.688;2023-02-01T04:20:01;1.10;99.90
36924;DHT22;22841;50.252;18.688;2023-02-01T04:22:27;1.10;99.90
36924;DHT22;22841;50.252;18.688;2023-02-01T04:24:54;1.10;99.90
36924;DHT22;22841;50.252;18.688;2023-02-01T04:27:20;1.10;99.90
36924;DHT22;22841;50.252;18.688;2023-02-01T04:29:46;1.10;99.90
36924;DHT22;22841;50.252;18.688;2023-02-01T04:32:12;1.10;99.90
36924;DHT22;22841;50.252;18.688;2023-02-01T04:34:38;1.10;99.90
36924;DHT22;22841;50.252;18.688;2023-02-01T04:37:05;1.10;99.90
36924;DHT22;22841;50.252;18.688;2023-02-01T04:39:31;1.10;99.90
36924;DHT22;22841;50.252;18.688;2023-02-01T04:41:57;1.10;99.90
36924;DHT22;22841;50.252;18.688;2023-02-01T04:44:23;1.10;99.90
36924;DHT22;22841;50.252;18.688;2023-02-01T04:46:49;1.00;99.90
36924;DHT22;22841;50.252;18.688;2023-02-01T04:49:15;0.90;99.90
36924;DHT22;22841;50.252;18.688;2023-02-01T04:51:42;0.90;99.90
36924;DHT22;22841;50.252;18.688;2023-02-01T04:54:08;0.90;99.90
36924;DHT22;22841;50.252;18.688;2023-02-01T04:56:37;0.90;99.90
36924;DHT22;22841;50.252;18.688;2023-02-01T04:59:04;0.90;99.90
36924;DHT22;22841;50.252;18.688;2023-02-01T05:01:30;0.90;99.90
36924;DHT22;22841;50.252;18.688;2023-02-01T05:03:56;0.90;99.90
36924;DHT22;22841;50.252;18.688;2023-02-01T05:06:22;0.90;99.90
36924;DHT22;22841;50.252;18.688;2023-02-01T05:08:49;1.00;99.90
36924;DHT22;22841;50.252;18.688;2023-02-01T05:11:15;1.00;99.90
36924;DHT22;22841;50.252;18.688;2023-02-01T05:14:00;1.00;99.90
36924;DHT22;22841;50.252;18.688;2023-02-01T05:16:26;1.00;99.90
36924;DHT22;22841;50.252;18.688;2023-02-01T05:18:53;1.00;99.90
36924;DHT22;22841;50.252;18.688;2023-02-01T05:21:19;1.00;99.90
36924;DHT22;22841;50.252;18.688;2023-02-01T05:23:46;1.00;99.90
36924;DHT22;22841;50.252;18.688;2023-02-01T05:26:31;1.10;99.90
36924;DHT22;22841;50.252;18.688;2023-02-01T05:28:57;1.10;99.90
36924;DHT22;22841;50.252;18.688;2023-02-01T05:31:24;1.20;99.90
36924;DHT22;22841;50.252;18.688;2023-02-01T05:33:50;1.20;99.90
36924;DHT22;22841;50.252;18.688;2023-02-01T05:36:16;1.20;99.90
36924;DHT22;22841;50.252;18.688;2023-02-01T05:38:42;1.20;99.90
36924;DHT22;22841;50.252;18.688;2023-02-01T05:41:08;1.20;99.90
36924;DHT22;22841;50.252;18.688;2023-02-01T05:43:34;1.20;99.90
36924;DHT22;22841;50.252;18.688;2023-02-01T05:46:00;1.20;99.90
36924;DHT22;22841;50.252;18.688;2023-02-01T05:48:27;1.30;99.90
36924;DHT22;22841;50.252;18.688;2023-02-01T05:50:53;1.30;99.90
36924;DHT22;22841;50.252;18.688;2023-02-01T05:53:19;1.30;99.90
36924;DHT22;22841;50.252;18.688;2023-02-01T05:55:45;1.30;99.90
36924;DHT22;22841;50.252;18.688;2023-02-01T05:58:11;1.30;99.90
36924;DHT22;22841;50.252;18.688;2023-02-01T06:00:38;1.40;99.90
36924;DHT22;22841;50.252;18.688;2023-02-01T06:03:05;1.40;99.90
36924;DHT22;22841;50.252;18.688;2023-02-01T06:05:31;1.40;99.90
36924;DHT22;22841;50.252;18.688;2023-02-01T06:07:57;1.50;99.90
36924;DHT22;22841;50.252;18.688;2023-02-01T06:10:24;1.50;99.90
36924;DHT22;22841;50.252;18.688;2023-02-01T06:12:50;1.40;99.90
36924;DHT22;22841;50.252;18.688;2023-02-01T06:15:16;1.40;99.90
36924;DHT22;22841;50.252;18.688;2023-02-01T06:17:44;1.40;99.90
36924;DHT22;22841;50.252;18.688;2023-02-01T06:20:12;1.40;99.90
36924;DHT22;22841;50.252;18.688;2023-02-01T06:22:38;1.40;99.90
36924;DHT22;22841;50.252;18.688;2023-02-01T06:25:09;1.40;99.90
36924;DHT22;22841;50.252;18.688;2023-02-01T06:27:35;1.40;99.90
36924;DHT22;22841;50.252;18.688;2023-02-01T06:30:03;1.50;99.90
36924;DHT22;22841;50.252;18.688;2023-02-01T06:32:30;1.50;99.90
36924;DHT22;22841;50.252;18.688;2023-02-01T06:34:56;1.50;99.90
36924;DHT22;22841;50.252;18.688;2023-02-01T06:37:23;1.50;99.90
36924;DHT22;22841;50.252;18.688;2023-02-01T06:39:51;1.50;99.90
36924;DHT22;22841;50.252;18.688;2023-02-01T06:42:17;1.50;99.90
36924;DHT22;22841;50.252;18.688;2023-02-01T06:44:43;1.50;99.90
36924;DHT22;22841;50.252;18.688;2023-02-01T06:47:09;1.50;99.90
36924;DHT22;22841;50.252;18.688;2023-02-01T06:49:35;1.40;99.90
36924;DHT22;22841;50.252;18.688;2023-02-01T06:52:01;1.50;99.90
36924;DHT22;22841;50.252;18.688;2023-02-01T06:54:27;1.50;99.90
36924;DHT22;22841;50.252;18.688;2023-02-01T06:56:54;1.50;99.90
36924;DHT22;22841;50.252;18.688;2023-02-01T06:59:20;1.50;99.90
36924;DHT22;22841;50.252;18.688;2023-02-01T07:01:46;1.50;99.90
36924;DHT22;22841;50.252;18.688;2023-02-01T07:04:12;1.50;99.90
36924;DHT22;22841;50.252;18.688;2023-02-01T07:06:39;1.50;99.90
36924;DHT22;22841;50.252;18.688;2023-02-01T07:09:06;1.50;99.90
36924;DHT22;22841;50.252;18.688;2023-02-01T07:11:32;1.50;99.90
36924;DHT22;22841;50.252;18.688;2023-02-01T07:13:58;1.60;99.90
36924;DHT22;22841;50.252;18.688;2023-02-01T07:16:25;1.60;99.90
36924;DHT22;22841;50.252;18.688;2023-02-01T07:18:52;1.60;99.90
36924;DHT22;22841;50.252;18.688;2023-02-01T07:21:19;1.60;99.90
36924;DHT22;22841;50.252;18.688;2023-02-01T07:23:46;1.60;99.90
36924;DHT22;22841;50.252;18.688;2023-02-01T07:26:13;1.60;99.90
36924;DHT22;22841;50.252;18.688;2023-02-01T07:28:40;1.60;99.90
36924;DHT22;22841;50.252;18.688;2023-02-01T07:31:12;1.60;99.90
36924;DHT22;22841;50.252;18.688;2023-02-01T07:33:39;1.60;99.90
36924;DHT22;22841;50.252;18.688;2023-02-01T07:36:07;1.70;99.90
36924;DHT22;22841;50.252;18.688;2023-02-01T07:38:33;1.70;99.90
36924;DHT22;22841;50.252;18.688;2023-02-01T07:41:01;1.70;99.90
36924;DHT22;22841;50.252;18.688;2023-02-01T07:43:28;1.70;99.90
36924;DHT22;22841;50.252;18.688;2023-02-01T07:45:54;1.70;99.90
36924;DHT22;22841;50.252;18.688;2023-02-01T07:48:22;1.70;99.90
36924;DHT22;22841;50.252;18.688;2023-02-01T07:50:56;1.70;99.90
36924;DHT22;22841;50.252;18.688;2023-02-01T07:53:22;1.70;99.90
36924;DHT22;22841;50.252;18.688;2023-02-01T07:55:48;1.70;99.90
36924;DHT22;22841;50.252;18.688;2023-02-01T07:58:14;1.80;99.90
36924;DHT22;22841;50.252;18.688;2023-02-01T08:00:40;1.80;99.90
36924;DHT22;22841;50.252;18.688;2023-02-01T08:03:25;1.80;99.90
36924;DHT22;22841;50.252;18.688;2023-02-01T08:05:57;1.80;99.90
36924;DHT22;22841;50.252;18.688;2023-02-01T08:08:23;1.90;99.90
36924;DHT22;22841;50.252;18.688;2023-02-01T08:10:49;1.90;99.90
36924;DHT22;22841;50.252;18.688;2023-02-01T08:13:15;1.90;99.90
36924;DHT22;22841;50.252;18.688;2023-02-01T08:15:42;1.90;99.90
36924;DHT22;22841;50.252;18.688;2023-02-01T08:18:08;1.90;99.90
36924;DHT22;22841;50.252;18.688;2023-02-01T08:20:35;2.00;99.90
36924;DHT22;22841;50.252;18.688;2023-02-01T08:23:02;2.10;99.90
36924;DHT22;22841;50.252;18.688;2023-02-01T08:25:28;2.10;99.90
36924;DHT22;22841;50.252;18.688;2023-02-01T08:27:54;2.10;99.90
36924;DHT22;22841;50.252;18.688;2023-02-01T08:30:20;2.20;99.90
36924;DHT22;22841;50.252;18.688;2023-02-01T08:32:48;2.20;99.90
36924;DHT22;22841;50.252;18.688;2023-02-01T08:35:14;2.20;99.90
36924;DHT22;22841;50.252;18.688;2023-02-01T08:37:40;2.20;99.90
36924;DHT22;22841;50.252;18.688;2023-02-01T08:40:06;2.20;99.90
36924;DHT22;22841;50.252;18.688;2023-02-01T08:42:33;2.20;99.90
36924;DHT22;22841;50.252;18.688;2023-02-01T08:45:25;2.20;99.90
36924;DHT22;22841;50.252;18.688;2023-02-01T08:47:52;2.20;99.90
36924;DHT22;22841;50.252;18.688;2023-02-01T08:50:19;2.30;99.90
36924;DHT22;22841;50.252;18.688;2023-02-01T08:52:46;2.30;99.90
36924;DHT22;22841;50.252;18.688;2023-02-01T08:55:13;2.30;99.90
36924;DHT22;22841;50.252;18.688;2023-02-01T08:57:40;2.40;99.90
36924;DHT22;22841;50.252;18.688;2023-02-01T09:00:08;2.30;99.90
36924;DHT22;22841;50.252;18.688;2023-02-01T09:02:36;2.30;99.90
36924;DHT22;22841;50.252;18.688;2023-02-01T09:05:03;2.30;99.90
36924;DHT22;22841;50.252;18.688;2023-02-01T09:07:29;2.30;99.90
36924;DHT22;22841;50.252;18.688;2023-02-01T09:09:56;2.40;99.90
36924;DHT22;22841;50.252;18.688;2023-02-01T09:12:26;2.40;99.90
36924;DHT22;22841;50.252;18.688;2023-02-01T09:14:52;2.30;99.90
36924;DHT22;22841;50.252;18.688;2023-02-01T09:17:18;2.50;99.90
36924;DHT22;22841;50.252;18.688;2023-02-01T09:19:44;2.50;99.90
36924;DHT22;22841;50.252;18.688;2023-02-01T09:22:10;2.50;99.90
36924;DHT22;22841;50.252;18.688;2023-02-01T09:24:36;2.60;99.90
36924;DHT22;22841;50.252;18.688;2023-02-01T09:27:02;2.50;99.90
36924;DHT22;22841;50.252;18.688;2023-02-01T09:29:28;2.60;99.90
36924;DHT22;22841;50.252;18.688;2023-02-01T09:31:54;2.60;99.90
36924;DHT22;22841;50.252;18.688;2023-02-01T09:34:20;2.60;99.90
36924;DHT22;22841;50.252;18.688;2023-02-01T09:36:46;2.70;99.90
36924;DHT22;22841;50.252;18.688;2023-02-01T09:39:13;2.70;99.90
36924;DHT22;22841;50.252;18.688;2023-02-01T09:44:47;2.70;99.90
36924;DHT22;22841;50.252;18.688;2023-02-01T09:47:20;2.80;99.90
36924;DHT22;22841;50.252;18.688;2023-02-01T09:52:43;3.00;99.90
36924;DHT22;22841;50.252;18.688;2023-02-01T09:58:01;3.00;99.90
36924;DHT22;22841;50.252;18.688;2023-02-01T10:00:37;3.10;99.90
36924;DHT22;22841;50.252;18.688;2023-02-01T10:03:04;3.10;99.90
36924;DHT22;22841;50.252;18.688;2023-02-01T10:08:33;3.10;99.90
36924;DHT22;22841;50.252;18.688;2023-02-01T10:17:08;3.00;99.90
36924;DHT22;22841;50.252;18.688;2023-02-01T10:20:04;3.10;99.90
36924;DHT22;22841;50.252;18.688;2023-02-01T10:22:45;3.10;99.90
36924;DHT22;22841;50.252;18.688;2023-02-01T10:25:20;3.10;99.90
36924;DHT22;22841;50.252;18.688;2023-02-01T10:27:48;3.00;99.90
36924;DHT22;22841;50.252;18.688;2023-02-01T10:30:21;3.00;99.90
36924;DHT22;22841;50.252;18.688;2023-02-01T10:33:35;3.00;99.90
36924;DHT22;22841;50.252;18.688;2023-02-01T10:35:36;3.00;99.90
36924;DHT22;22841;50.252;18.688;2023-02-01T10:38:17;3.10;99.90
36924;DHT22;22841;50.252;18.688;2023-02-01T10:40:46;3.10;99.90
36924;DHT22;22841;50.252;18.688;2023-02-01T10:43:12;3.10;99.90
36924;DHT22;22841;50.252;18.688;2023-02-01T10:45:38;3.20;99.90
36924;DHT22;22841;50.252;18.688;2023-02-01T10:48:07;3.20;99.90
36924;DHT22;22841;50.252;18.688;2023-02-01T10:50:38;3.10;99.90
36924;DHT22;22841;50.252;18.688;2023-02-01T10:55:41;3.20;99.90
36924;DHT22;22841;50.252;18.688;2023-02-01T10:58:17;3.20;99.90
36924;DHT22;22841;50.252;18.688;2023-02-01T11:00:44;3.20;99.90
36924;DHT22;22841;50.252;18.688;2023-02-01T11:05:59;3.20;99.90
36924;DHT22;22841;50.252;18.688;2023-02-01T11:08:25;3.20;99.90
36924;DHT22;22841;50.252;18.688;2023-02-01T11:10:59;3.30;99.90
36924;DHT22;22841;50.252;18.688;2023-02-01T11:13:29;3.40;99.90
36924;DHT22;22841;50.252;18.688;2023-02-01T11:15:57;3.40;99.90
36924;DHT22;22841;50.252;18.688;2023-02-01T11:18:31;3.40;99.90
36924;DHT22;22841;50.252;18.688;2023-02-01T11:20:59;3.50;99.90
36924;DHT22;22841;50.252;18.688;2023-02-01T11:23:27;3.50;99.90
36924;DHT22;22841;50.252;18.688;2023-02-01T11:25:59;3.50;99.90
36924;DHT22;22841;50.252;18.688;2023-02-01T11:28:31;3.50;99.90
36924;DHT22;22841;50.252;18.688;2023-02-01T11:31:02;3.50;99.90
36924;DHT22;22841;50.252;18.688;2023-02-01T11:33:34;3.60;99.90
36924;DHT22;22841;50.252;18.688;2023-02-01T11:36:08;3.60;99.90
36924;DHT22;22841;50.252;18.688;2023-02-01T11:38:34;3.60;99.90
36924;DHT22;22841;50.252;18.688;2023-02-01T11:41:23;3.60;99.90
36924;DHT22;22841;50.252;18.688;2023-02-01T11:43:57;3.60;99.90
36924;DHT22;22841;50.252;18.688;2023-02-01T11:46:32;3.60;99.90
36924;DHT22;22841;50.252;18.688;2023-02-01T11:52:02;3.60;99.90
36924;DHT22;22841;50.252;18.688;2023-02-01T11:57:43;3.60;99.90
36924;DHT22;22841;50.252;18.688;2023-02-01T12:00:26;3.60;99.90
36924;DHT22;22841;50.252;18.688;2023-02-01T12:30:27;3.50;99.90
36924;DHT22;22841;50.252;18.688;2023-02-01T12:36:09;3.50;99.90
36924;DHT22;22841;50.252;18.688;2023-02-01T13:06:23;3.40;99.90
36924;DHT22;22841;50.252;18.688;2023-02-01T17:51:12;2.10;99.90
36924;DHT22;22841;50.252;18.688;2023-02-01T17:54:12;2.20;99.90
36924;DHT22;22841;50.252;18.688;2023-02-01T17:59:15;2.10;99.90
36924;DHT22;22841;50.252;18.688;2023-02-01T18:42:36;2.10;99.90
36924;DHT22;22841;50.252;18.688;2023-02-01T18:45:02;2.20;99.90
36924;DHT22;22841;50.252;18.688;2023-02-01T18:47:28;2.20;99.90
36924;DHT22;22841;50.252;18.688;2023-02-01T18:50:15;2.10;99.90
36924;DHT22;22841;50.252;18.688;2023-02-01T18:52:53;2.10;99.90
36924;DHT22;22841;50.252;18.688;2023-02-01T18:55:19;2.10;99.90
36924;DHT22;22841;50.252;18.688;2023-02-01T18:57:46;2.10;99.90
36924;DHT22;22841;50.252;18.688;2023-02-01T19:00:13;2.10;99.90
36924;DHT22;22841;50.252;18.688;2023-02-01T19:02:39;2.10;99.90
36924;DHT22;22841;50.252;18.688;2023-02-01T19:05:07;2.10;99.90
36924;DHT22;22841;50.252;18.688;2023-02-01T19:07:35;2.00;99.90
36924;DHT22;22841;50.252;18.688;2023-02-01T19:10:02;2.00;99.90
36924;DHT22;22841;50.252;18.688;2023-02-01T19:12:31;2.00;99.90
36924;DHT22;22841;50.252;18.688;2023-02-01T19:15:06;2.00;99.90
36924;DHT22;22841;50.252;18.688;2023-02-01T19:17:32;2.00;99.90
36924;DHT22;22841;50.252;18.688;2023-02-01T19:19:59;2.00;99.90
36924;DHT22;22841;50.252;18.688;2023-02-01T19:25:15;2.00;99.90
36924;DHT22;22841;50.252;18.688;2023-02-01T19:27:41;2.00;99.90
36924;DHT22;22841;50.252;18.688;2023-02-01T19:30:08;2.00;99.90
36924;DHT22;22841;50.252;18.688;2023-02-01T19:32:36;2.00;99.90
36924;DHT22;22841;50.252;18.688;2023-02-01T19:35:03;2.00;99.90
36924;DHT22;22841;50.252;18.688;2023-02-01T19:37:30;2.00;99.90
36924;DHT22;22841;50.252;18.688;2023-02-01T19:39:56;2.00;99.90
36924;DHT22;22841;50.252;18.688;2023-02-01T19:42:27;2.00;99.90
36924;DHT22;22841;50.252;18.688;2023-02-01T19:44:53;2.00;99.90
36924;DHT22;22841;50.252;18.688;2023-02-01T19:47:19;2.00;99.90
36924;DHT22;22841;50.252;18.688;2023-02-01T19:49:45;2.00;99.90
36924;DHT22;22841;50.252;18.688;2023-02-01T19:52:11;2.00;99.90
36924;DHT22;22841;50.252;18.688;2023-02-01T19:54:37;2.00;99.90
36924;DHT22;22841;50.252;18.688;2023-02-01T19:57:03;2.00;99.90
36924;DHT22;22841;50.252;18.688;2023-02-01T19:59:29;2.00;99.90
36924;DHT22;22841;50.252;18.688;2023-02-01T20:01:56;1.90;99.90
36924;DHT22;22841;50.252;18.688;2023-02-01T20:04:23;1.90;99.90
36924;DHT22;22841;50.252;18.688;2023-02-01T20:06:49;2.00;99.90
36924;DHT22;22841;50.252;18.688;2023-02-01T20:09:27;2.00;99.90
36924;DHT22;22841;50.252;18.688;2023-02-01T20:11:56;1.90;99.90
36924;DHT22;22841;50.252;18.688;2023-02-01T20:14:23;1.90;99.90
36924;DHT22;22841;50.252;18.688;2023-02-01T20:16:52;1.90;99.90
36924;DHT22;22841;50.252;18.688;2023-02-01T20:19:20;1.90;99.90
36924;DHT22;22841;50.252;18.688;2023-02-01T20:24:31;1.90;99.90
36924;DHT22;22841;50.252;18.688;2023-02-01T20:26:57;2.00;99.90
